sensor_id;sensor_type;location;lat;lon;timestamp;P1;durP1;ratioP1;P2;durP2;ratioP2
15982;SDS011;14442;50.196;8.096;2023-06-19T00:00:05;3.00;;;2.80;;
15982;SDS011;14442;50.196;8.096;2023-06-19T00:02:38;2.97;;;2.73;;
15982;SDS011;14442;50.196;8.096;2023-06-19T00:05:05;3.40;;;2.97;;
15982;SDS011;14442;50.196;8.096;2023-06-19T00:07:32;3.10;;;2.40;;
15982;SDS011;14442;50.196;8.096;2023-06-19T00:09:59;2.80;;;2.60;;
15982;SDS011;14442;50.196;8.096;2023-06-19T00:12:27;3.03;;;2.50;;
15982;SDS011;14442;50.196;8.096;2023-06-19T00:14:54;2.83;;;2.40;;
15982;SDS011;14442;50.196;8.096;2023-06-19T00:17:21;2.60;;;2.33;;
15982;SDS011;14442;50.196;8.096;2023-06-19T00:19:51;2.70;;;2.60;;
15982;SDS011;14442;50.196;8.096;2023-06-19T00:22:18;2.83;;;2.43;;
15982;SDS011;14442;50.196;8.096;2023-06-19T00:24:45;2.97;;;2.47;;
15982;SDS011;14442;50.196;8.096;2023-06-19T00:27:12;2.90;;;2.60;;
15982;SDS011;14442;50.196;8.096;2023-06-19T00:29:40;3.67;;;2.90;;
15982;SDS011;14442;50.196;8.096;2023-06-19T00:32:07;2.70;;;2.53;;
15982;SDS011;14442;50.196;8.096;2023-06-19T00:34:34;3.13;;;2.90;;
15982;SDS011;14442;50.196;8.096;2023-06-19T00:37:02;3.13;;;2.87;;
15982;SDS011;14442;50.196;8.096;2023-06-19T00:39:29;2.80;;;2.60;;
15982;SDS011;14442;50.196;8.096;2023-06-19T00:41:55;2.90;;;2.67;;
15982;SDS011;14442;50.196;8.096;2023-06-19T00:44:22;2.97;;;2.40;;
15982;SDS011;14442;50.196;8.096;2023-06-19T00:46:51;2.97;;;2.70;;
15982;SDS011;14442;50.196;8.096;2023-06-19T00:49:23;3.10;;;2.90;;
15982;SDS011;14442;50.196;8.096;2023-06-19T00:51:51;2.67;;;2.47;;
15982;SDS011;14442;50.196;8.096;2023-06-19T00:54:18;3.93;;;2.43;;
15982;SDS011;14442;50.196;8.096;2023-06-19T00:56:46;3.00;;;2.70;;
15982;SDS011;14442;50.196;8.096;2023-06-19T00:59:14;2.77;;;2.57;;
15982;SDS011;14442;50.196;8.096;2023-06-19T01:01:42;3.03;;;2.73;;
15982;SDS011;14442;50.196;8.096;2023-06-19T01:04:11;2.97;;;2.60;;
15982;SDS011;14442;50.196;8.096;2023-06-19T01:06:39;3.53;;;2.70;;
15982;SDS011;14442;50.196;8.096;2023-06-19T01:09:13;2.10;;;2.00;;
15982;SDS011;14442;50.196;8.096;2023-06-19T01:11:43;2.80;;;2.60;;
15982;SDS011;14442;50.196;8.096;2023-06-19T01:14:12;2.60;;;2.50;;
15982;SDS011;14442;50.196;8.096;2023-06-19T01:16:44;2.77;;;2.57;;
15982;SDS011;14442;50.196;8.096;2023-06-19T01:19:14;2.63;;;2.43;;
15982;SDS011;14442;50.196;8.096;2023-06-19T01:21:44;2.80;;;2.60;;
15982;SDS011;14442;50.196;8.096;2023-06-19T01:24:13;2.50;;;2.40;;
15982;SDS011;14442;50.196;8.096;2023-06-19T01:26:40;2.10;;;2.00;;
15982;SDS011;14442;50.196;8.096;2023-06-19T01:29:10;3.10;;;2.77;;
15982;SDS011;14442;50.196;8.096;2023-06-19T01:31:39;2.50;;;2.40;;
15982;SDS011;14442;50.196;8.096;2023-06-19T01:34:11;2.43;;;2.33;;
15982;SDS011;14442;50.196;8.096;2023-06-19T01:36:40;3.67;;;2.67;;
15982;SDS011;14442;50.196;8.096;2023-06-19T01:39:08;2.60;;;2.50;;
15982;SDS011;14442;50.196;8.096;2023-06-19T01:41:37;2.63;;;2.53;;
15982;SDS011;14442;50.196;8.096;2023-06-19T01:44:06;4.10;;;2.57;;
15982;SDS011;14442;50.196;8.096;2023-06-19T01:46:34;2.77;;;2.20;;
15982;SDS011;14442;50.196;8.096;2023-06-19T01:49:01;2.67;;;2.47;;
15982;SDS011;14442;50.196;8.096;2023-06-19T01:51:27;2.33;;;2.23;;
15982;SDS011;14442;50.196;8.096;2023-06-19T01:53:54;2.40;;;2.30;;
15982;SDS011;14442;50.196;8.096;2023-06-19T01:56:22;2.67;;;2.47;;
15982;SDS011;14442;50.196;8.096;2023-06-19T01:58:50;2.27;;;2.17;;
15982;SDS011;14442;50.196;8.096;2023-06-19T02:01:17;2.57;;;2.47;;
15982;SDS011;14442;50.196;8.096;2023-06-19T02:03:44;2.83;;;2.63;;
15982;SDS011;14442;50.196;8.096;2023-06-19T02:06:10;2.27;;;2.17;;
15982;SDS011;14442;50.196;8.096;2023-06-19T02:08:37;2.60;;;2.50;;
15982;SDS011;14442;50.196;8.096;2023-06-19T02:11:04;2.93;;;2.73;;
15982;SDS011;14442;50.196;8.096;2023-06-19T02:13:31;2.53;;;2.40;;
15982;SDS011;14442;50.196;8.096;2023-06-19T02:15:59;2.33;;;2.23;;
15982;SDS011;14442;50.196;8.096;2023-06-19T02:18:25;2.40;;;2.30;;
15982;SDS011;14442;50.196;8.096;2023-06-19T02:20:52;3.17;;;2.50;;
15982;SDS011;14442;50.196;8.096;2023-06-19T02:23:19;2.53;;;2.40;;
15982;SDS011;14442;50.196;8.096;2023-06-19T02:25:46;3.17;;;2.90;;
15982;SDS011;14442;50.196;8.096;2023-06-19T02:28:12;2.77;;;2.57;;
15982;SDS011;14442;50.196;8.096;2023-06-19T02:30:39;2.80;;;2.60;;
15982;SDS011;14442;50.196;8.096;2023-06-19T02:33:08;2.80;;;2.60;;
15982;SDS011;14442;50.196;8.096;2023-06-19T02:35:34;2.80;;;2.60;;
15982;SDS011;14442;50.196;8.096;2023-06-19T02:38:01;2.60;;;2.50;;
15982;SDS011;14442;50.196;8.096;2023-06-19T02:40:29;2.63;;;2.40;;
15982;SDS011;14442;50.196;8.096;2023-06-19T02:42:56;2.93;;;2.40;;
15982;SDS011;14442;50.196;8.096;2023-06-19T02:45:23;2.50;;;2.30;;
15982;SDS011;14442;50.196;8.096;2023-06-19T02:47:49;2.50;;;2.40;;
15982;SDS011;14442;50.196;8.096;2023-06-19T02:50:18;2.70;;;2.50;;
15982;SDS011;14442;50.196;8.096;2023-06-19T02:52:45;2.80;;;2.60;;
15982;SDS011;14442;50.196;8.096;2023-06-19T02:55:11;2.50;;;2.40;;
15982;SDS011;14442;50.196;8.096;2023-06-19T02:57:38;2.90;;;2.70;;
15982;SDS011;14442;50.196;8.096;2023-06-19T03:00:05;2.57;;;2.37;;
15982;SDS011;14442;50.196;8.096;2023-06-19T03:02:34;2.43;;;2.33;;
15982;SDS011;14442;50.196;8.096;2023-06-19T03:05:01;2.83;;;2.63;;
15982;SDS011;14442;50.196;8.096;2023-06-19T03:07:30;2.80;;;2.60;;
15982;SDS011;14442;50.196;8.096;2023-06-19T03:09:57;2.57;;;2.47;;
15982;SDS011;14442;50.196;8.096;2023-06-19T03:12:24;2.57;;;2.47;;
15982;SDS011;14442;50.196;8.096;2023-06-19T03:14:50;2.67;;;2.53;;
15982;SDS011;14442;50.196;8.096;2023-06-19T03:17:17;2.63;;;2.50;;
15982;SDS011;14442;50.196;8.096;2023-06-19T03:19:44;2.60;;;2.40;;
15982;SDS011;14442;50.196;8.096;2023-06-19T03:22:10;2.33;;;2.13;;
15982;SDS011;14442;50.196;8.096;2023-06-19T03:24:38;2.70;;;2.50;;
15982;SDS011;14442;50.196;8.096;2023-06-19T03:27:05;2.67;;;2.47;;
15982;SDS011;14442;50.196;8.096;2023-06-19T03:29:32;2.57;;;2.47;;
15982;SDS011;14442;50.196;8.096;2023-06-19T03:31:59;2.57;;;2.47;;
15982;SDS011;14442;50.196;8.096;2023-06-19T03:34:25;2.57;;;2.40;;
15982;SDS011;14442;50.196;8.096;2023-06-19T03:36:52;2.53;;;2.40;;
15982;SDS011;14442;50.196;8.096;2023-06-19T03:39:19;2.53;;;2.30;;
15982;SDS011;14442;50.196;8.096;2023-06-19T03:41:47;2.67;;;2.57;;
15982;SDS011;14442;50.196;8.096;2023-06-19T03:44:14;2.50;;;2.40;;
15982;SDS011;14442;50.196;8.096;2023-06-19T03:46:40;4.60;;;2.53;;
15982;SDS011;14442;50.196;8.096;2023-06-19T03:49:07;2.93;;;2.73;;
15982;SDS011;14442;50.196;8.096;2023-06-19T03:51:35;2.67;;;2.43;;
15982;SDS011;14442;50.196;8.096;2023-06-19T03:54:02;2.53;;;2.33;;
15982;SDS011;14442;50.196;8.096;2023-06-19T03:56:29;2.63;;;2.47;;
15982;SDS011;14442;50.196;8.096;2023-06-19T03:58:57;2.87;;;2.60;;
15982;SDS011;14442;50.196;8.096;2023-06-19T04:01:23;2.53;;;2.33;;
15982;SDS011;14442;50.196;8.096;2023-06-19T04:03:50;2.37;;;2.27;;
15982;SDS011;14442;50.196;8.096;2023-06-19T04:06:17;2.23;;;2.13;;
15982;SDS011;14442;50.196;8.096;2023-06-19T04:08:43;2.03;;;1.93;;
15982;SDS011;14442;50.196;8.096;2023-06-19T04:11:10;2.53;;;2.43;;
15982;SDS011;14442;50.196;8.096;2023-06-19T04:13:37;2.37;;;2.27;;
15982;SDS011;14442;50.196;8.096;2023-06-19T04:16:05;2.63;;;2.50;;
15982;SDS011;14442;50.196;8.096;2023-06-19T04:18:32;2.20;;;2.10;;
15982;SDS011;14442;50.196;8.096;2023-06-19T04:20:58;2.33;;;2.23;;
15982;SDS011;14442;50.196;8.096;2023-06-19T04:23:25;2.43;;;2.23;;
15982;SDS011;14442;50.196;8.096;2023-06-19T04:25:52;2.40;;;2.30;;
15982;SDS011;14442;50.196;8.096;2023-06-19T04:28:18;2.57;;;2.47;;
15982;SDS011;14442;50.196;8.096;2023-06-19T04:30:45;2.50;;;2.40;;
15982;SDS011;14442;50.196;8.096;2023-06-19T04:33:13;2.50;;;2.40;;
15982;SDS011;14442;50.196;8.096;2023-06-19T04:35:40;2.43;;;2.33;;
15982;SDS011;14442;50.196;8.096;2023-06-19T04:38:07;2.87;;;2.67;;
15982;SDS011;14442;50.196;8.096;2023-06-19T04:40:34;2.30;;;2.17;;
15982;SDS011;14442;50.196;8.096;2023-06-19T04:43:01;2.40;;;2.30;;
15982;SDS011;14442;50.196;8.096;2023-06-19T04:45:30;2.70;;;2.50;;
15982;SDS011;14442;50.196;8.096;2023-06-19T04:47:57;2.40;;;2.30;;
15982;SDS011;14442;50.196;8.096;2023-06-19T04:50:29;2.20;;;2.10;;
15982;SDS011;14442;50.196;8.096;2023-06-19T04:52:55;2.53;;;2.43;;
15982;SDS011;14442;50.196;8.096;2023-06-19T04:55:22;2.67;;;2.47;;
15982;SDS011;14442;50.196;8.096;2023-06-19T04:57:50;2.33;;;2.23;;
15982;SDS011;14442;50.196;8.096;2023-06-19T05:00:17;2.40;;;2.30;;
15982;SDS011;14442;50.196;8.096;2023-06-19T05:02:45;2.50;;;2.40;;
15982;SDS011;14442;50.196;8.096;2023-06-19T05:05:12;1.90;;;1.80;;
15982;SDS011;14442;50.196;8.096;2023-06-19T05:07:40;2.40;;;2.30;;
15982;SDS011;14442;50.196;8.096;2023-06-19T05:10:07;2.40;;;2.30;;
15982;SDS011;14442;50.196;8.096;2023-06-19T05:12:35;2.27;;;2.17;;
15982;SDS011;14442;50.196;8.096;2023-06-19T05:15:02;2.47;;;2.37;;
15982;SDS011;14442;50.196;8.096;2023-06-19T05:17:29;2.20;;;2.10;;
15982;SDS011;14442;50.196;8.096;2023-06-19T05:19:56;2.70;;;2.50;;
15982;SDS011;14442;50.196;8.096;2023-06-19T05:22:22;2.70;;;2.47;;
15982;SDS011;14442;50.196;8.096;2023-06-19T05:24:50;2.17;;;2.07;;
15982;SDS011;14442;50.196;8.096;2023-06-19T05:27:17;2.30;;;2.20;;
15982;SDS011;14442;50.196;8.096;2023-06-19T05:29:44;2.33;;;2.23;;
15982;SDS011;14442;50.196;8.096;2023-06-19T05:32:11;1.83;;;1.73;;
15982;SDS011;14442;50.196;8.096;2023-06-19T05:34:37;2.20;;;2.10;;
15982;SDS011;14442;50.196;8.096;2023-06-19T05:37:04;2.57;;;2.37;;
15982;SDS011;14442;50.196;8.096;2023-06-19T05:39:31;3.57;;;3.20;;
15982;SDS011;14442;50.196;8.096;2023-06-19T05:41:59;3.23;;;2.80;;
15982;SDS011;14442;50.196;8.096;2023-06-19T05:44:27;6.43;;;2.77;;
15982;SDS011;14442;50.196;8.096;2023-06-19T05:46:53;3.73;;;2.60;;
15982;SDS011;14442;50.196;8.096;2023-06-19T05:49:20;4.87;;;2.47;;
15982;SDS011;14442;50.196;8.096;2023-06-19T05:51:47;9.33;;;2.67;;
15982;SDS011;14442;50.196;8.096;2023-06-19T05:54:14;6.33;;;2.63;;
15982;SDS011;14442;50.196;8.096;2023-06-19T05:56:42;5.40;;;2.73;;
15982;SDS011;14442;50.196;8.096;2023-06-19T05:59:10;7.93;;;2.70;;
15982;SDS011;14442;50.196;8.096;2023-06-19T06:01:39;5.00;;;2.33;;
15982;SDS011;14442;50.196;8.096;2023-06-19T06:04:06;7.30;;;2.53;;
15982;SDS011;14442;50.196;8.096;2023-06-19T06:06:32;8.00;;;2.97;;
15982;SDS011;14442;50.196;8.096;2023-06-19T06:09:00;9.80;;;2.87;;
15982;SDS011;14442;50.196;8.096;2023-06-19T06:11:26;8.50;;;2.77;;
15982;SDS011;14442;50.196;8.096;2023-06-19T06:13:53;11.80;;;2.83;;
15982;SDS011;14442;50.196;8.096;2023-06-19T06:16:21;17.00;;;2.87;;
15982;SDS011;14442;50.196;8.096;2023-06-19T06:18:48;3.63;;;2.60;;
15982;SDS011;14442;50.196;8.096;2023-06-19T06:21:14;5.70;;;2.30;;
15982;SDS011;14442;50.196;8.096;2023-06-19T06:23:41;3.53;;;2.00;;
15982;SDS011;14442;50.196;8.096;2023-06-19T06:26:09;3.20;;;2.10;;
15982;SDS011;14442;50.196;8.096;2023-06-19T06:28:36;4.90;;;2.20;;
15982;SDS011;14442;50.196;8.096;2023-06-19T06:31:03;3.17;;;1.90;;
15982;SDS011;14442;50.196;8.096;2023-06-19T06:33:31;6.03;;;2.60;;
15982;SDS011;14442;50.196;8.096;2023-06-19T06:35:58;9.10;;;2.40;;
15982;SDS011;14442;50.196;8.096;2023-06-19T06:38:25;3.90;;;2.20;;
15982;SDS011;14442;50.196;8.096;2023-06-19T06:40:52;2.47;;;2.00;;
15982;SDS011;14442;50.196;8.096;2023-06-19T06:43:19;3.80;;;2.00;;
15982;SDS011;14442;50.196;8.096;2023-06-19T06:45:45;3.03;;;2.03;;
15982;SDS011;14442;50.196;8.096;2023-06-19T06:48:12;6.00;;;2.27;;
15982;SDS011;14442;50.196;8.096;2023-06-19T06:50:40;3.10;;;2.10;;
15982;SDS011;14442;50.196;8.096;2023-06-19T06:53:07;3.37;;;1.93;;
15982;SDS011;14442;50.196;8.096;2023-06-19T06:55:34;7.13;;;3.20;;
15982;SDS011;14442;50.196;8.096;2023-06-19T06:58:01;7.03;;;2.40;;
15982;SDS011;14442;50.196;8.096;2023-06-19T07:00:28;3.10;;;1.90;;
15982;SDS011;14442;50.196;8.096;2023-06-19T07:02:55;5.57;;;2.00;;
15982;SDS011;14442;50.196;8.096;2023-06-19T07:05:22;5.07;;;2.10;;
15982;SDS011;14442;50.196;8.096;2023-06-19T07:07:50;5.47;;;2.37;;
15982;SDS011;14442;50.196;8.096;2023-06-19T07:10:17;5.37;;;1.73;;
15982;SDS011;14442;50.196;8.096;2023-06-19T07:12:44;3.97;;;2.53;;
15982;SDS011;14442;50.196;8.096;2023-06-19T07:15:11;5.10;;;2.20;;
15982;SDS011;14442;50.196;8.096;2023-06-19T07:17:38;5.43;;;1.87;;
15982;SDS011;14442;50.196;8.096;2023-06-19T07:20:05;4.90;;;2.17;;
15982;SDS011;14442;50.196;8.096;2023-06-19T07:22:33;4.50;;;2.00;;
15982;SDS011;14442;50.196;8.096;2023-06-19T07:25:01;5.93;;;2.10;;
15982;SDS011;14442;50.196;8.096;2023-06-19T07:27:28;2.37;;;1.93;;
15982;SDS011;14442;50.196;8.096;2023-06-19T07:29:55;3.37;;;2.27;;
15982;SDS011;14442;50.196;8.096;2023-06-19T07:32:22;5.97;;;2.10;;
15982;SDS011;14442;50.196;8.096;2023-06-19T07:34:49;4.30;;;2.00;;
15982;SDS011;14442;50.196;8.096;2023-06-19T07:37:15;3.77;;;2.10;;
15982;SDS011;14442;50.196;8.096;2023-06-19T07:39:43;7.37;;;2.30;;
15982;SDS011;14442;50.196;8.096;2023-06-19T07:42:11;3.27;;;1.90;;
15982;SDS011;14442;50.196;8.096;2023-06-19T07:44:38;5.50;;;2.10;;
15982;SDS011;14442;50.196;8.096;2023-06-19T07:47:05;2.63;;;1.63;;
15982;SDS011;14442;50.196;8.096;2023-06-19T07:49:32;4.97;;;2.30;;
15982;SDS011;14442;50.196;8.096;2023-06-19T07:51:59;4.67;;;1.97;;
15982;SDS011;14442;50.196;8.096;2023-06-19T07:54:25;2.93;;;1.80;;
15982;SDS011;14442;50.196;8.096;2023-06-19T07:56:52;9.30;;;1.97;;
15982;SDS011;14442;50.196;8.096;2023-06-19T07:59:20;3.20;;;1.97;;
15982;SDS011;14442;50.196;8.096;2023-06-19T08:01:47;7.43;;;2.23;;
15982;SDS011;14442;50.196;8.096;2023-06-19T08:04:14;6.43;;;2.20;;
15982;SDS011;14442;50.196;8.096;2023-06-19T08:06:41;14.57;;;2.50;;
15982;SDS011;14442;50.196;8.096;2023-06-19T08:09:07;8.37;;;2.23;;
15982;SDS011;14442;50.196;8.096;2023-06-19T08:11:34;5.47;;;1.70;;
15982;SDS011;14442;50.196;8.096;2023-06-19T08:14:02;7.13;;;2.20;;
15982;SDS011;14442;50.196;8.096;2023-06-19T08:16:30;20.30;;;2.33;;
15982;SDS011;14442;50.196;8.096;2023-06-19T08:18:57;5.60;;;2.00;;
15982;SDS011;14442;50.196;8.096;2023-06-19T08:21:23;5.90;;;1.90;;
15982;SDS011;14442;50.196;8.096;2023-06-19T08:23:50;5.70;;;2.40;;
15982;SDS011;14442;50.196;8.096;2023-06-19T08:26:17;5.90;;;1.80;;
15982;SDS011;14442;50.196;8.096;2023-06-19T08:28:44;5.07;;;2.40;;
15982;SDS011;14442;50.196;8.096;2023-06-19T08:31:10;5.33;;;2.17;;
15982;SDS011;14442;50.196;8.096;2023-06-19T08:33:38;2.80;;;2.00;;
15982;SDS011;14442;50.196;8.096;2023-06-19T08:36:05;4.00;;;2.17;;
15982;SDS011;14442;50.196;8.096;2023-06-19T08:38:32;4.90;;;2.20;;
15982;SDS011;14442;50.196;8.096;2023-06-19T08:40:59;2.60;;;1.90;;
15982;SDS011;14442;50.196;8.096;2023-06-19T08:43:25;2.93;;;2.10;;
15982;SDS011;14442;50.196;8.096;2023-06-19T08:45:54;3.00;;;1.83;;
15982;SDS011;14442;50.196;8.096;2023-06-19T08:48:28;4.30;;;2.17;;
15982;SDS011;14442;50.196;8.096;2023-06-19T08:50:56;4.57;;;2.20;;
15982;SDS011;14442;50.196;8.096;2023-06-19T08:53:23;2.73;;;1.80;;
15982;SDS011;14442;50.196;8.096;2023-06-19T08:55:49;2.47;;;1.63;;
15982;SDS011;14442;50.196;8.096;2023-06-19T08:58:20;2.10;;;2.00;;
15982;SDS011;14442;50.196;8.096;2023-06-19T09:00:47;3.40;;;1.77;;
15982;SDS011;14442;50.196;8.096;2023-06-19T09:03:19;1.77;;;1.60;;
15982;SDS011;14442;50.196;8.096;2023-06-19T09:05:46;1.77;;;1.50;;
15982;SDS011;14442;50.196;8.096;2023-06-19T09:08:16;5.67;;;1.80;;
15982;SDS011;14442;50.196;8.096;2023-06-19T09:10:53;4.80;;;2.03;;
15982;SDS011;14442;50.196;8.096;2023-06-19T09:13:21;4.27;;;2.07;;
15982;SDS011;14442;50.196;8.096;2023-06-19T09:15:47;1.67;;;1.57;;
15982;SDS011;14442;50.196;8.096;2023-06-19T09:18:22;3.40;;;2.23;;
15982;SDS011;14442;50.196;8.096;2023-06-19T09:20:51;1.53;;;1.43;;
15982;SDS011;14442;50.196;8.096;2023-06-19T09:23:20;3.80;;;1.73;;
15982;SDS011;14442;50.196;8.096;2023-06-19T09:25:47;3.17;;;1.60;;
15982;SDS011;14442;50.196;8.096;2023-06-19T09:28:18;2.37;;;1.70;;
15982;SDS011;14442;50.196;8.096;2023-06-19T09:30:53;2.40;;;1.47;;
15982;SDS011;14442;50.196;8.096;2023-06-19T09:33:21;1.83;;;1.70;;
15982;SDS011;14442;50.196;8.096;2023-06-19T09:35:48;3.10;;;1.30;;
15982;SDS011;14442;50.196;8.096;2023-06-19T09:38:16;4.47;;;1.60;;
15982;SDS011;14442;50.196;8.096;2023-06-19T09:40:45;8.13;;;1.83;;
15982;SDS011;14442;50.196;8.096;2023-06-19T09:43:14;5.83;;;1.90;;
15982;SDS011;14442;50.196;8.096;2023-06-19T09:45:45;7.03;;;2.23;;
15982;SDS011;14442;50.196;8.096;2023-06-19T09:48:14;4.00;;;1.73;;
15982;SDS011;14442;50.196;8.096;2023-06-19T09:50:46;5.70;;;1.90;;
15982;SDS011;14442;50.196;8.096;2023-06-19T09:53:16;2.53;;;2.00;;
15982;SDS011;14442;50.196;8.096;2023-06-19T09:55:46;5.10;;;2.20;;
15982;SDS011;14442;50.196;8.096;2023-06-19T09:58:15;1.53;;;1.47;;
15982;SDS011;14442;50.196;8.096;2023-06-19T10:00:42;2.13;;;1.50;;
15982;SDS011;14442;50.196;8.096;2023-06-19T10:03:11;2.27;;;1.87;;
15982;SDS011;14442;50.196;8.096;2023-06-19T10:05:38;5.23;;;1.83;;
15982;SDS011;14442;50.196;8.096;2023-06-19T10:08:05;1.83;;;1.70;;
15982;SDS011;14442;50.196;8.096;2023-06-19T10:10:33;3.67;;;2.13;;
15982;SDS011;14442;50.196;8.096;2023-06-19T10:13:11;3.80;;;1.73;;
15982;SDS011;14442;50.196;8.096;2023-06-19T10:15:40;3.97;;;1.80;;
15982;SDS011;14442;50.196;8.096;2023-06-19T10:18:12;2.30;;;1.60;;
15982;SDS011;14442;50.196;8.096;2023-06-19T10:20:41;1.77;;;1.60;;
15982;SDS011;14442;50.196;8.096;2023-06-19T10:23:10;2.43;;;1.40;;
15982;SDS011;14442;50.196;8.096;2023-06-19T10:25:38;3.87;;;1.40;;
15982;SDS011;14442;50.196;8.096;2023-06-19T10:28:17;5.27;;;1.47;;
15982;SDS011;14442;50.196;8.096;2023-06-19T10:30:44;4.73;;;1.50;;
15982;SDS011;14442;50.196;8.096;2023-06-19T10:33:11;4.83;;;1.60;;
15982;SDS011;14442;50.196;8.096;2023-06-19T10:35:38;2.13;;;1.67;;
15982;SDS011;14442;50.196;8.096;2023-06-19T10:38:06;3.67;;;1.47;;
15982;SDS011;14442;50.196;8.096;2023-06-19T10:40:35;3.70;;;1.67;;
15982;SDS011;14442;50.196;8.096;2023-06-19T10:43:02;2.93;;;1.37;;
15982;SDS011;14442;50.196;8.096;2023-06-19T10:45:31;3.40;;;1.60;;
15982;SDS011;14442;50.196;8.096;2023-06-19T10:48:00;3.77;;;1.83;;
15982;SDS011;14442;50.196;8.096;2023-06-19T10:50:28;2.20;;;1.30;;
15982;SDS011;14442;50.196;8.096;2023-06-19T10:52:58;2.70;;;1.50;;
15982;SDS011;14442;50.196;8.096;2023-06-19T10:55:25;3.07;;;1.40;;
15982;SDS011;14442;50.196;8.096;2023-06-19T10:57:52;2.80;;;1.70;;
15982;SDS011;14442;50.196;8.096;2023-06-19T11:00:22;2.80;;;1.40;;
15982;SDS011;14442;50.196;8.096;2023-06-19T11:02:51;1.50;;;1.40;;
15982;SDS011;14442;50.196;8.096;2023-06-19T11:05:22;3.53;;;1.67;;
15982;SDS011;14442;50.196;8.096;2023-06-19T11:07:53;1.80;;;1.70;;
15982;SDS011;14442;50.196;8.096;2023-06-19T11:10:21;4.10;;;1.57;;
15982;SDS011;14442;50.196;8.096;2023-06-19T11:12:48;2.63;;;1.53;;
15982;SDS011;14442;50.196;8.096;2023-06-19T11:15:15;1.80;;;1.50;;
15982;SDS011;14442;50.196;8.096;2023-06-19T11:17:42;1.73;;;1.63;;
15982;SDS011;14442;50.196;8.096;2023-06-19T11:20:11;1.83;;;1.63;;
15982;SDS011;14442;50.196;8.096;2023-06-19T11:22:39;2.17;;;1.60;;
15982;SDS011;14442;50.196;8.096;2023-06-19T11:25:07;2.50;;;1.70;;
15982;SDS011;14442;50.196;8.096;2023-06-19T11:27:36;1.60;;;1.50;;
15982;SDS011;14442;50.196;8.096;2023-06-19T11:30:05;2.23;;;1.70;;
15982;SDS011;14442;50.196;8.096;2023-06-19T11:32:33;2.37;;;1.70;;
15982;SDS011;14442;50.196;8.096;2023-06-19T11:35:06;1.53;;;1.43;;
15982;SDS011;14442;50.196;8.096;2023-06-19T11:37:35;2.00;;;1.20;;
15982;SDS011;14442;50.196;8.096;2023-06-19T11:40:02;1.70;;;1.60;;
15982;SDS011;14442;50.196;8.096;2023-06-19T11:42:44;1.80;;;1.70;;
15982;SDS011;14442;50.196;8.096;2023-06-19T11:45:11;3.17;;;1.93;;
15982;SDS011;14442;50.196;8.096;2023-06-19T11:47:38;9.40;;;2.13;;
15982;SDS011;14442;50.196;8.096;2023-06-19T11:50:05;4.37;;;1.53;;
15982;SDS011;14442;50.196;8.096;2023-06-19T11:52:32;2.77;;;1.80;;
15982;SDS011;14442;50.196;8.096;2023-06-19T11:55:01;4.03;;;1.53;;
15982;SDS011;14442;50.196;8.096;2023-06-19T11:57:27;4.67;;;1.77;;
15982;SDS011;14442;50.196;8.096;2023-06-19T11:59:54;1.63;;;1.50;;
15982;SDS011;14442;50.196;8.096;2023-06-19T12:02:21;5.10;;;2.07;;
15982;SDS011;14442;50.196;8.096;2023-06-19T12:04:48;2.27;;;1.83;;
15982;SDS011;14442;50.196;8.096;2023-06-19T12:07:15;3.47;;;1.53;;
15982;SDS011;14442;50.196;8.096;2023-06-19T12:09:41;1.87;;;1.77;;
15982;SDS011;14442;50.196;8.096;2023-06-19T12:12:10;3.20;;;1.77;;
15982;SDS011;14442;50.196;8.096;2023-06-19T12:14:36;2.70;;;1.80;;
15982;SDS011;14442;50.196;8.096;2023-06-19T12:17:04;8.80;;;4.60;;
15982;SDS011;14442;50.196;8.096;2023-06-19T12:19:31;16.50;;;8.53;;
15982;SDS011;14442;50.196;8.096;2023-06-19T12:21:58;25.63;;;19.83;;
15982;SDS011;14442;50.196;8.096;2023-06-19T12:24:25;24.70;;;18.77;;
15982;SDS011;14442;50.196;8.096;2023-06-19T12:26:51;24.03;;;19.00;;
15982;SDS011;14442;50.196;8.096;2023-06-19T12:29:19;26.23;;;17.30;;
15982;SDS011;14442;50.196;8.096;2023-06-19T12:31:46;23.97;;;17.93;;
15982;SDS011;14442;50.196;8.096;2023-06-19T12:34:13;22.90;;;17.43;;
15982;SDS011;14442;50.196;8.096;2023-06-19T12:36:40;22.30;;;16.73;;
15982;SDS011;14442;50.196;8.096;2023-06-19T12:39:07;22.70;;;15.83;;
15982;SDS011;14442;50.196;8.096;2023-06-19T12:41:40;20.23;;;14.57;;
15982;SDS011;14442;50.196;8.096;2023-06-19T12:44:06;17.17;;;14.00;;
15982;SDS011;14442;50.196;8.096;2023-06-19T12:46:34;17.13;;;12.90;;
15982;SDS011;14442;50.196;8.096;2023-06-19T12:49:01;17.93;;;12.87;;
15982;SDS011;14442;50.196;8.096;2023-06-19T12:51:28;15.27;;;11.97;;
15982;SDS011;14442;50.196;8.096;2023-06-19T12:53:55;15.93;;;12.77;;
15982;SDS011;14442;50.196;8.096;2023-06-19T12:56:22;18.53;;;12.70;;
15982;SDS011;14442;50.196;8.096;2023-06-19T12:58:48;18.43;;;11.37;;
15982;SDS011;14442;50.196;8.096;2023-06-19T13:01:15;13.60;;;11.20;;
15982;SDS011;14442;50.196;8.096;2023-06-19T13:03:43;11.10;;;9.90;;
15982;SDS011;14442;50.196;8.096;2023-06-19T13:06:10;15.13;;;10.97;;
15982;SDS011;14442;50.196;8.096;2023-06-19T13:08:37;15.37;;;11.33;;
15982;SDS011;14442;50.196;8.096;2023-06-19T13:11:03;13.30;;;10.37;;
15982;SDS011;14442;50.196;8.096;2023-06-19T13:13:30;15.33;;;10.73;;
15982;SDS011;14442;50.196;8.096;2023-06-19T13:15:57;13.70;;;10.97;;
15982;SDS011;14442;50.196;8.096;2023-06-19T13:18:24;12.90;;;9.97;;
15982;SDS011;14442;50.196;8.096;2023-06-19T13:20:52;13.07;;;10.17;;
15982;SDS011;14442;50.196;8.096;2023-06-19T13:23:18;13.97;;;10.13;;
15982;SDS011;14442;50.196;8.096;2023-06-19T13:25:45;14.93;;;10.20;;
15982;SDS011;14442;50.196;8.096;2023-06-19T13:28:12;14.30;;;9.70;;
15982;SDS011;14442;50.196;8.096;2023-06-19T13:30:39;13.73;;;9.67;;
15982;SDS011;14442;50.196;8.096;2023-06-19T13:33:05;10.97;;;9.50;;
15982;SDS011;14442;50.196;8.096;2023-06-19T13:35:32;11.10;;;9.43;;
15982;SDS011;14442;50.196;8.096;2023-06-19T13:38:00;11.57;;;9.37;;
15982;SDS011;14442;50.196;8.096;2023-06-19T13:40:27;13.23;;;9.23;;
15982;SDS011;14442;50.196;8.096;2023-06-19T13:42:54;10.90;;;9.60;;
15982;SDS011;14442;50.196;8.096;2023-06-19T13:45:22;9.90;;;8.87;;
15982;SDS011;14442;50.196;8.096;2023-06-19T13:47:48;11.00;;;8.83;;
15982;SDS011;14442;50.196;8.096;2023-06-19T13:50:16;12.60;;;8.93;;
15982;SDS011;14442;50.196;8.096;2023-06-19T13:52:44;9.90;;;8.90;;
15982;SDS011;14442;50.196;8.096;2023-06-19T13:55:12;11.27;;;9.17;;
15982;SDS011;14442;50.196;8.096;2023-06-19T13:57:40;12.73;;;10.07;;
15982;SDS011;14442;50.196;8.096;2023-06-19T14:00:08;10.87;;;9.03;;
15982;SDS011;14442;50.196;8.096;2023-06-19T14:02:36;10.83;;;8.77;;
15982;SDS011;14442;50.196;8.096;2023-06-19T14:05:03;10.33;;;8.93;;
15982;SDS011;14442;50.196;8.096;2023-06-19T14:07:31;9.90;;;8.90;;
15982;SDS011;14442;50.196;8.096;2023-06-19T14:09:58;11.00;;;9.13;;
15982;SDS011;14442;50.196;8.096;2023-06-19T14:12:26;10.47;;;8.63;;
15982;SDS011;14442;50.196;8.096;2023-06-19T14:14:53;10.07;;;8.43;;
15982;SDS011;14442;50.196;8.096;2023-06-19T14:17:21;9.27;;;7.63;;
15982;SDS011;14442;50.196;8.096;2023-06-19T14:19:47;10.80;;;8.40;;
15982;SDS011;14442;50.196;8.096;2023-06-19T14:22:15;9.37;;;8.37;;
15982;SDS011;14442;50.196;8.096;2023-06-19T14:24:42;9.83;;;8.10;;
15982;SDS011;14442;50.196;8.096;2023-06-19T14:27:08;9.20;;;8.27;;
15982;SDS011;14442;50.196;8.096;2023-06-19T14:29:36;10.33;;;8.60;;
15982;SDS011;14442;50.196;8.096;2023-06-19T14:32:03;10.27;;;8.47;;
15982;SDS011;14442;50.196;8.096;2023-06-19T14:34:30;9.07;;;7.70;;
15982;SDS011;14442;50.196;8.096;2023-06-19T14:36:57;9.10;;;8.13;;
15982;SDS011;14442;50.196;8.096;2023-06-19T14:39:23;10.50;;;7.43;;
15982;SDS011;14442;50.196;8.096;2023-06-19T14:41:50;10.97;;;7.73;;
15982;SDS011;14442;50.196;8.096;2023-06-19T14:44:17;10.63;;;7.53;;
15982;SDS011;14442;50.196;8.096;2023-06-19T14:46:45;12.97;;;7.43;;